Time,TemperatureF,DewpointF,PressureIn,WindDirection,WindDirectionDegrees,WindSpeedMPH,WindSpeedGustMPH,Humidity,HourlyPrecipIn,Conditions,Clouds,dailyrainin,SoftwareType,DateUTC
2013-01-22 00:01:00,10.2,-1.3,29.09,SSW,202,4.7,5.8,59,0.00,,,0.00,WUHU216WMR100,2013-01-22 05:01:00,
2013-01-22 00:02:00,10.2,-1.3,29.09,SSW,202,4.7,5.8,59,0.00,,,0.00,WUHU216WMR100,2013-01-22 05:02:00,
2013-01-22 00:07:00,10.2,-1.3,29.09,SSW,202,4.7,5.8,59,0.00,,,0.00,WUHU216WMR100,2013-01-22 05:07:00,
2013-01-22 00:12:00,10.0,-1.5,29.09,SSW,202,4.7,5.8,59,0.00,,,0.00,WUHU216WMR100,2013-01-22 05:12:00,
2013-01-22 00:17:00,9.7,-1.7,29.09,SSW,202,4.7,5.8,59,0.00,,,0.00,WUHU216WMR100,2013-01-22 05:17:00,
2013-01-22 00:23:00,10.0,-1.5,29.09,SSW,202,4.7,5.8,59,0.00,,,0.00,WUHU216WMR100,2013-01-22 05:23:00,
2013-01-22 00:28:00,9.9,-1.6,29.09,SSW,202,4.7,5.8,59,0.00,,,0.00,WUHU216WMR100,2013-01-22 05:28:00,
2013-01-22 00:33:00,9.7,-1.7,29.09,SSW,202,4.7,5.8,59,0.00,,,0.00,WUHU216WMR100,2013-01-22 05:33:00,
2013-01-22 00:38:00,9.5,-1.9,29.09,SSW,202,4.7,5.8,59,0.00,,,0.00,WUHU216WMR100,2013-01-22 05:38:00,
2013-01-22 00:43:00,9.5,-1.9,29.09,SSW,202,4.7,5.8,59,0.00,,,0.00,WUHU216WMR100,2013-01-22 05:43:00,
2013-01-22 00:48:00,9.3,-2.1,29.09,SSW,202,4.7,5.8,59,0.00,,,0.00,WUHU216WMR100,2013-01-22 05:48:00,
2013-01-22 00:53:00,9.3,-2.1,29.09,SSW,202,4.7,5.8,59,0.00,,,0.00,WUHU216WMR100,2013-01-22 05:53:00,
2013-01-22 00:58:00,9.1,-2.3,29.09,NNW,337,4.7,5.8,59,0.00,,,0.00,WUHU216WMR100,2013-01-22 05:58:00,
2013-01-22 01:03:00,9.1,-2.3,29.09,WNW,292,4.3,5.8,59,0.00,,,0.00,WUHU216WMR100,2013-01-22 06:03:00,
2013-01-22 01:08:00,9.1,-2.3,29.09,WNW,292,4.3,5.8,59,0.00,,,0.00,WUHU216WMR100,2013-01-22 06:08:00,
2013-01-22 01:13:00,9.1,-2.3,29.09,WNW,292,8.1,12.8,59,0.00,,,0.00,WUHU216WMR100,2013-01-22 06:13:00,
2013-01-22 01:18:00,9.1,-2.3,29.09,WNW,292,4.3,12.8,59,0.00,,,0.00,WUHU216WMR100,2013-01-22 06:18:00,
2013-01-22 01:23:00,9.0,-2.4,29.09,WNW,292,6.0,12.8,59,0.00,,,0.00,WUHU216WMR100,2013-01-22 06:23:00,
2013-01-22 01:28:00,9.0,-2.4,29.09,NW,315,3.6,10.7,59,0.00,,,0.00,WUHU216WMR100,2013-01-22 06:28:00,
2013-01-22 01:33:00,9.0,-2.4,29.09,NNW,337,4.7,11.0,59,0.00,,,0.00,WUHU216WMR100,2013-01-22 06:33:00,
2013-01-22 01:38:00,8.8,-2.6,29.09,WNW,292,6.5,11.0,59,0.00,,,0.00,WUHU216WMR100,2013-01-22 06:38:00,
2013-01-22 01:43:00,8.8,-2.6,29.09,WSW,247,2.9,10.3,59,0.00,,,0.00,WUHU216WMR100,2013-01-22 06:43:00,
2013-01-22 01:48:00,8.6,-2.8,29.09,NNW,337,4.9,10.3,59,0.00,,,0.00,WUHU216WMR100,2013-01-22 06:48:00,
2013-01-22 01:53:00,8.8,-2.6,29.09,West,270,8.9,10.7,59,0.00,,,0.00,WUHU216WMR100,2013-01-22 06:53:00,
2013-01-22 01:58:00,8.6,-2.8,29.09,NNW,337,5.4,10.7,59,0.00,,,0.00,WUHU216WMR100,2013-01-22 06:58:00,
2013-01-22 02:03:00,8.6,-2.8,29.09,WNW,292,4.7,9.6,59,0.00,,,0.00,WUHU216WMR100,2013-01-22 07:03:00,
2013-01-22 02:08:00,8.4,-3.0,29.09,WNW,292,3.6,9.4,59,0.00,,,0.00,WUHU216WMR100,2013-01-22 07:08:00,
2013-01-22 02:13:00,8.4,-3.0,29.09,West,270,3.1,9.4,59,0.00,,,0.00,WUHU216WMR100,2013-01-22 07:13:00,
2013-01-22 02:18:00,8.2,-3.2,29.09,NW,315,3.1,6.3,59,0.00,,,0.00,WUHU216WMR100,2013-01-22 07:18:00,
2013-01-22 02:23:00,8.2,-3.2,29.09,West,270,3.4,7.2,59,0.00,,,0.00,WUHU216WMR100,2013-01-22 07:23:00,
2013-01-22 02:28:00,8.1,-3.3,29.09,West,270,4.3,7.2,59,0.00,,,0.00,WUHU216WMR100,2013-01-22 07:28:00,
2013-01-22 02:33:00,8.2,-3.2,29.09,WSW,247,2.9,8.9,59,0.00,,,0.00,WUHU216WMR100,2013-01-22 07:33:00,
2013-01-22 02:38:00,8.1,-3.3,29.09,NNW,337,4.5,8.9,59,0.00,,,0.00,WUHU216WMR100,2013-01-22 07:38:00,
2013-01-22 02:43:00,8.1,-3.3,29.09,WNW,292,2.0,6.3,59,0.00,,,0.00,WUHU216WMR100,2013-01-22 07:43:00,
2013-01-22 02:48:00,8.1,-3.3,29.09,NW,315,4.0,6.7,59,0.00,,,0.00,WUHU216WMR100,2013-01-22 07:48:00,
2013-01-22 02:53:00,7.9,-3.4,29.09,West,270,4.0,6.7,59,0.00,,,0.00,WUHU216WMR100,2013-01-22 07:53:00,
2013-01-22 02:58:00,8.1,-3.3,29.09,West,270,4.9,10.3,59,0.00,,,0.00,WUHU216WMR100,2013-01-22 07:58:00,
2013-01-22 03:03:00,7.9,-3.4,29.09,WSW,247,4.0,10.3,59,0.00,,,0.00,WUHU216WMR100,2013-01-22 08:03:00,
2013-01-22 03:08:00,7.9,-3.4,29.09,NW,315,6.5,8.5,59,0.00,,,0.00,WUHU216WMR100,2013-01-22 08:08:00,
2013-01-22 03:13:00,7.9,-3.4,29.12,WSW,247,4.0,8.5,59,0.00,,,0.00,WUHU216WMR100,2013-01-22 08:13:00,
2013-01-22 03:18:00,7.7,-3.6,29.12,WNW,292,3.6,8.1,59,0.00,,,0.00,WUHU216WMR100,2013-01-22 08:18:00,
2013-01-22 03:23:00,7.7,-3.6,29.12,West,270,3.1,8.1,59,0.00,,,0.00,WUHU216WMR100,2013-01-22 08:23:00,
2013-01-22 03:28:00,7.7,-3.6,29.12,NNW,337,3.6,9.6,59,0.00,,,0.00,WUHU216WMR100,2013-01-22 08:28:00,
2013-01-22 03:33:00,7.7,-3.6,29.12,WNW,292,4.3,9.6,59,0.00,,,0.00,WUHU216WMR100,2013-01-22 08:33:00,
2013-01-22 03:38:00,7.5,-3.8,29.12,West,270,2.0,6.9,59,0.00,,,0.00,WUHU216WMR100,2013-01-22 08:38:00,
2013-01-22 03:43:00,7.5,-3.8,29.12,NW,315,2.7,6.9,59,0.00,,,0.00,WUHU216WMR100,2013-01-22 08:43:00,
2013-01-22 03:48:00,7.5,-3.8,29.12,WSW,247,3.4,5.8,59,0.00,,,0.00,WUHU216WMR100,2013-01-22 08:48:00,
2013-01-22 03:53:00,7.3,-4.0,29.12,WSW,247,2.0,4.0,59,0.00,,,0.00,WUHU216WMR100,2013-01-22 08:53:00,
2013-01-22 03:58:00,7.2,-4.1,29.12,SSW,202,2.2,6.3,59,0.00,,,0.00,WUHU216WMR100,2013-01-22 08:58:00,
2013-01-22 04:03:00,7.2,-4.1,29.12,WSW,247,3.6,6.3,59,0.00,,,0.00,WUHU216WMR100,2013-01-22 09:03:00,
2013-01-22 04:08:00,7.2,-4.1,29.12,WSW,247,3.6,6.5,59,0.00,,,0.00,WUHU216WMR100,2013-01-22 09:08:00,
2013-01-22 04:13:00,7.2,-4.1,29.12,SSW,202,2.5,6.5,59,0.00,,,0.00,WUHU216WMR100,2013-01-22 09:13:00,
2013-01-22 04:18:00,7.0,-4.3,29.12,West,270,2.2,4.9,59,0.00,,,0.00,WUHU216WMR100,2013-01-22 09:18:00,
2013-01-22 04:23:00,6.8,-4.5,29.12,WSW,247,3.4,4.0,59,0.00,,,0.00,WUHU216WMR100,2013-01-22 09:23:00,
2013-01-22 04:28:00,6.8,-4.5,29.09,WSW,247,2.5,4.9,59,0.00,,,0.00,WUHU216WMR100,2013-01-22 09:28:00,
2013-01-22 04:33:00,6.8,-4.5,29.09,West,270,2.9,6.3,59,0.00,,,0.00,WUHU216WMR100,2013-01-22 09:33:00,
2013-01-22 04:38:00,6.8,-4.5,29.09,WNW,292,2.9,6.3,59,0.00,,,0.00,WUHU216WMR100,2013-01-22 09:38:00,
2013-01-22 04:43:00,6.8,-4.5,29.12,WNW,292,2.9,5.8,59,0.00,,,0.00,WUHU216WMR100,2013-01-22 09:43:00,
2013-01-22 04:48:00,6.6,-4.7,29.12,WNW,292,2.0,5.8,59,0.00,,,0.00,WUHU216WMR100,2013-01-22 09:48:00,
2013-01-22 04:53:00,6.4,-4.9,29.12,WSW,247,3.4,4.9,59,0.00,,,0.00,WUHU216WMR100,2013-01-22 09:53:00,
2013-01-22 04:58:00,6.4,-4.9,29.12,West,270,2.7,5.4,59,0.00,,,0.00,WUHU216WMR100,2013-01-22 09:58:00,
2013-01-22 05:03:00,6.4,-4.9,29.12,West,270,4.3,7.6,59,0.00,,,0.00,WUHU216WMR100,2013-01-22 10:03:00,
2013-01-22 05:08:00,6.4,-4.9,29.12,West,270,2.5,7.6,59,0.00,,,0.00,WUHU216WMR100,2013-01-22 10:08:00,
2013-01-22 05:13:00,6.4,-4.9,29.12,WNW,292,3.1,5.4,59,0.00,,,0.00,WUHU216WMR100,2013-01-22 10:13:00,
2013-01-22 05:18:00,6.4,-4.9,29.12,WSW,247,2.9,5.4,59,0.00,,,0.00,WUHU216WMR100,2013-01-22 10:18:00,
2013-01-22 05:23:00,6.4,-4.9,29.12,WSW,247,2.2,5.6,59,0.00,,,0.00,WUHU216WMR100,2013-01-22 10:23:00,
2013-01-22 05:28:00,6.3,-5.0,29.12,WNW,292,2.5,5.6,59,0.00,,,0.00,WUHU216WMR100,2013-01-22 10:28:00,
2013-01-22 05:33:00,6.4,-4.9,29.12,WSW,247,2.9,5.4,59,0.00,,,0.00,WUHU216WMR100,2013-01-22 10:33:00,
2013-01-22 05:38:00,6.4,-4.9,29.12,WNW,292,2.7,5.4,59,0.00,,,0.00,WUHU216WMR100,2013-01-22 10:38:00,
2013-01-22 05:43:00,6.4,-4.9,29.12,WNW,292,4.0,6.5,59,0.00,,,0.00,WUHU216WMR100,2013-01-22 10:43:00,
2013-01-22 05:48:00,6.4,-4.9,29.12,NW,315,3.4,6.5,59,0.00,,,0.00,WUHU216WMR100,2013-01-22 10:48:00,
2013-01-22 05:53:00,6.3,-5.0,29.12,WSW,247,3.1,5.6,59,0.00,,,0.00,WUHU216WMR100,2013-01-22 10:53:00,
2013-01-22 05:58:00,6.4,-4.9,29.12,NNE,22,3.1,8.1,59,0.00,,,0.00,WUHU216WMR100,2013-01-22 10:58:00,
2013-01-22 06:03:00,6.4,-4.9,29.12,West,270,2.7,8.1,59,0.00,,,0.00,WUHU216WMR100,2013-01-22 11:03:00,
2013-01-22 06:08:00,6.4,-4.9,29.12,West,270,3.6,5.8,59,0.00,,,0.00,WUHU216WMR100,2013-01-22 11:08:00,
2013-01-22 06:13:00,6.4,-4.9,29.15,WNW,292,2.5,6.5,59,0.00,,,0.00,WUHU216WMR100,2013-01-22 11:13:00,
2013-01-22 06:18:00,6.4,-4.9,29.15,WNW,292,3.6,6.5,59,0.00,,,0.00,WUHU216WMR100,2013-01-22 11:18:00,
2013-01-22 06:23:00,6.4,-4.9,29.15,WSW,247,3.1,6.0,59,0.00,,,0.00,WUHU216WMR100,2013-01-22 11:23:00,
2013-01-22 06:28:00,6.4,-4.9,29.15,NNW,337,3.4,5.4,59,0.00,,,0.00,WUHU216WMR100,2013-01-22 11:28:00,
2013-01-22 06:33:00,6.4,-4.9,29.15,WSW,247,5.6,5.8,59,0.00,,,0.00,WUHU216WMR100,2013-01-22 11:33:00,
2013-01-22 06:38:00,6.4,-4.9,29.15,NW,315,2.5,5.8,59,0.00,,,0.00,WUHU216WMR100,2013-01-22 11:38:00,
2013-01-22 06:43:00,6.4,-4.9,29.15,WSW,247,2.5,5.6,59,0.00,,,0.00,WUHU216WMR100,2013-01-22 11:43:00,
2013-01-22 06:48:00,6.3,-5.0,29.15,NNE,22,2.7,4.7,59,0.00,,,0.00,WUHU216WMR100,2013-01-22 11:48:00,
2013-01-22 06:53:00,6.3,-5.0,29.15,WNW,292,3.4,5.8,59,0.00,,,0.00,WUHU216WMR100,2013-01-22 11:53:00,
2013-01-22 06:58:00,6.3,-5.0,29.18,NNW,337,2.7,5.8,59,0.00,,,0.00,WUHU216WMR100,2013-01-22 11:58:00,
2013-01-22 07:03:00,6.3,-5.0,29.18,WSW,247,2.5,5.4,59,0.00,,,0.00,WUHU216WMR100,2013-01-22 12:03:00,
2013-01-22 07:08:00,6.3,-5.0,29.18,WNW,292,4.5,5.4,59,0.00,,,0.00,WUHU216WMR100,2013-01-22 12:08:00,
2013-01-22 07:13:00,6.3,-5.0,29.18,WNW,292,4.5,4.7,59,0.00,,,0.00,WUHU216WMR100,2013-01-22 12:13:00,
2013-01-22 07:18:00,6.3,-5.0,29.18,West,270,4.0,5.8,59,0.00,,,0.00,WUHU216WMR100,2013-01-22 12:18:00,
2013-01-22 07:23:00,6.1,-5.1,29.18,West,270,4.0,5.8,59,0.00,,,0.00,WUHU216WMR100,2013-01-22 12:23:00,
2013-01-22 07:28:00,6.1,-5.1,29.18,WNW,292,4.0,4.0,59,0.00,,,0.00,WUHU216WMR100,2013-01-22 12:28:00,
2013-01-22 07:33:00,5.9,-5.3,29.18,NW,315,1.1,4.0,59,0.00,,,0.00,WUHU216WMR100,2013-01-22 12:33:00,
2013-01-22 07:38:00,6.1,-5.1,29.18,WNW,292,2.0,6.0,59,0.00,,,0.00,WUHU216WMR100,2013-01-22 12:38:00,
2013-01-22 07:43:00,6.1,-5.1,29.18,WNW,292,2.0,6.0,59,0.00,,,0.00,WUHU216WMR100,2013-01-22 12:43:00,
2013-01-22 07:48:00,6.1,-5.1,29.18,WNW,292,3.1,6.0,59,0.00,,,0.00,WUHU216WMR100,2013-01-22 12:48:00,
2013-01-22 07:53:00,6.1,-5.1,29.18,West,270,4.3,6.0,59,0.00,,,0.00,WUHU216WMR100,2013-01-22 12:53:00,
2013-01-22 07:58:00,6.3,-5.0,29.18,WSW,247,2.0,6.0,59,0.00,,,0.00,WUHU216WMR100,2013-01-22 12:58:00,
2013-01-22 08:03:00,6.3,-5.0,29.18,WNW,292,4.0,6.0,59,0.00,,,0.00,WUHU216WMR100,2013-01-22 13:03:00,
2013-01-22 08:08:00,6.3,-5.0,29.18,WNW,292,2.5,4.9,59,0.00,,,0.00,WUHU216WMR100,2013-01-22 13:08:00,
2013-01-22 08:13:00,6.4,-4.9,29.21,North,0,2.5,6.0,59,0.00,,,0.00,WUHU216WMR100,2013-01-22 13:13:00,
2013-01-22 08:18:00,7.2,-4.1,29.21,WNW,292,3.1,6.0,59,0.00,,,0.00,WUHU216WMR100,2013-01-22 13:18:00,
2013-01-22 08:23:00,7.3,-4.0,29.21,WSW,247,2.0,4.7,59,0.00,,,0.00,WUHU216WMR100,2013-01-22 13:23:00,
2013-01-22 08:28:00,7.7,-3.6,29.21,WNW,292,2.5,3.6,59,0.00,,,0.00,WUHU216WMR100,2013-01-22 13:28:00,
2013-01-22 08:33:00,8.2,-3.2,29.21,WNW,292,2.0,3.6,59,0.00,,,0.00,WUHU216WMR100,2013-01-22 13:33:00,
2013-01-22 08:38:00,8.6,-2.8,29.21,WSW,247,3.8,7.2,59,0.00,,,0.00,WUHU216WMR100,2013-01-22 13:38:00,
2013-01-22 08:43:00,8.8,-2.6,29.21,WNW,292,4.0,7.2,59,0.00,,,0.00,WUHU216WMR100,2013-01-22 13:43:00,
2013-01-22 08:48:00,9.0,-2.4,29.21,WNW,292,2.9,4.9,59,0.00,,,0.00,WUHU216WMR100,2013-01-22 13:48:00,
2013-01-22 08:53:00,9.0,-2.4,29.21,NNW,337,6.0,6.0,59,0.00,,,0.00,WUHU216WMR100,2013-01-22 13:53:00,
2013-01-22 08:58:00,8.8,-2.6,29.21,NNW,337,6.9,6.9,59,0.00,,,0.00,WUHU216WMR100,2013-01-22 13:58:00,
2013-01-22 09:03:00,9.1,-2.3,29.21,WSW,247,3.8,6.9,59,0.00,,,0.00,WUHU216WMR100,2013-01-22 14:03:00,
2013-01-22 09:08:00,8.6,-2.8,29.21,NNW,337,2.0,6.9,59,0.00,,,0.00,WUHU216WMR100,2013-01-22 14:08:00,
2013-01-22 09:13:00,8.8,-2.6,29.21,WSW,247,6.9,6.9,59,0.00,,,0.00,WUHU216WMR100,2013-01-22 14:13:00,
2013-01-22 09:18:00,9.0,-2.4,29.21,WSW,247,6.9,6.9,59,0.00,,,0.00,WUHU216WMR100,2013-01-22 14:18:00,
2013-01-22 09:23:00,9.5,-1.9,29.21,WSW,247,6.9,6.9,59,0.00,,,0.00,WUHU216WMR100,2013-01-22 14:23:00,
2013-01-22 09:28:00,9.3,-2.1,29.21,WNW,292,4.7,7.6,59,0.00,,,0.00,WUHU216WMR100,2013-01-22 14:28:00,
2013-01-22 09:33:00,9.7,-1.7,29.21,WNW,292,4.7,7.6,59,0.00,,,0.00,WUHU216WMR100,2013-01-22 14:33:00,
2013-01-22 09:38:00,10.2,-1.3,29.21,NNW,337,6.3,7.6,59,0.00,,,0.00,WUHU216WMR100,2013-01-22 14:38:00,
2013-01-22 09:43:00,10.4,-1.1,29.21,NNW,337,6.3,7.6,59,0.00,,,0.00,WUHU216WMR100,2013-01-22 14:43:00,
2013-01-22 09:48:00,11.1,-0.4,29.21,NNW,337,6.3,6.3,59,0.00,,,0.00,WUHU216WMR100,2013-01-22 14:48:00,
2013-01-22 09:53:00,12.0,0.4,29.21,NNW,337,6.3,6.3,59,0.00,,,0.00,WUHU216WMR100,2013-01-22 14:53:00,
2013-01-22 09:58:00,11.5,0.0,29.23,NNW,337,6.3,6.3,59,0.00,,,0.00,WUHU216WMR100,2013-01-22 14:58:00,
2013-01-22 10:03:00,11.7,0.2,29.23,NNW,337,6.3,6.3,59,0.00,,,0.00,WUHU216WMR100,2013-01-22 15:03:00,
2013-01-22 10:08:00,11.8,0.2,29.23,NNW,337,6.3,6.3,59,0.00,,,0.00,WUHU216WMR100,2013-01-22 15:08:00,
2013-01-22 10:13:00,12.0,0.4,29.23,NNW,337,6.3,6.3,59,0.00,,,0.00,WUHU216WMR100,2013-01-22 15:13:00,
2013-01-22 10:18:00,12.0,0.4,29.23,NNW,337,6.3,6.3,59,0.00,,,0.00,WUHU216WMR100,2013-01-22 15:18:00,
2013-01-22 10:23:00,12.6,1.0,29.23,NNW,337,6.3,6.3,59,0.00,,,0.00,WUHU216WMR100,2013-01-22 15:23:00,
2013-01-22 10:29:00,13.3,1.7,29.23,NNW,337,6.3,6.3,59,0.00,,,0.00,WUHU216WMR100,2013-01-22 15:29:00,
2013-01-22 10:34:00,14.2,-4.9,29.23,NNW,337,6.3,6.3,42,0.00,,,0.00,WUHU216WMR100,2013-01-22 15:34:00,
2013-01-22 10:39:00,14.4,-5.7,29.23,NNW,337,6.3,6.3,40,0.00,,,0.00,WUHU216WMR100,2013-01-22 15:39:00,
2013-01-22 10:44:00,14.9,-5.3,29.23,NNW,337,6.3,6.3,40,0.00,,,0.00,WUHU216WMR100,2013-01-22 15:44:00,
2013-01-22 10:49:00,13.3,-7.2,29.23,NNW,337,6.3,6.3,39,0.00,,,0.00,WUHU216WMR100,2013-01-22 15:49:00,
2013-01-22 10:54:00,13.5,-7.1,29.23,NNW,337,6.3,6.3,39,0.00,,,0.00,WUHU216WMR100,2013-01-22 15:54:00,
2013-01-22 10:59:00,12.9,-7.6,29.23,NNW,337,6.3,6.3,39,0.00,,,0.00,WUHU216WMR100,2013-01-22 15:59:00,
2013-01-22 11:04:00,12.4,-8.1,29.23,NNW,337,6.3,6.3,39,0.00,,,0.00,WUHU216WMR100,2013-01-22 16:04:00,
2013-01-22 11:09:00,11.5,-8.9,29.23,NNW,337,6.3,6.3,39,0.00,,,0.00,WUHU216WMR100,2013-01-22 16:09:00,
2013-01-22 11:14:00,11.3,-9.0,29.23,NNW,337,6.3,6.3,39,0.00,,,0.00,WUHU216WMR100,2013-01-22 16:14:00,
2013-01-22 11:19:00,11.7,-8.7,29.23,NNW,337,6.3,6.3,39,0.00,,,0.00,WUHU216WMR100,2013-01-22 16:19:00,
2013-01-22 11:24:00,14.2,-3.9,29.23,NNW,337,6.3,6.3,44,0.00,,,0.00,WUHU216WMR100,2013-01-22 16:24:00,
2013-01-22 11:29:00,15.1,-3.1,29.23,NNW,337,6.3,6.3,44,0.00,,,0.00,WUHU216WMR100,2013-01-22 16:29:00,
2013-01-22 11:34:00,15.6,-3.1,29.23,NNW,337,6.3,6.3,43,0.00,,,0.00,WUHU216WMR100,2013-01-22 16:34:00,
2013-01-22 11:39:00,14.5,-5.6,29.23,NNW,337,6.3,6.3,40,0.00,,,0.00,WUHU216WMR100,2013-01-22 16:39:00,
2013-01-22 11:44:00,14.9,-4.7,29.23,NNW,337,6.3,6.3,41,0.00,,,0.00,WUHU216WMR100,2013-01-22 16:44:00,
2013-01-22 11:49:00,15.3,-5.4,29.23,NNW,337,6.3,6.3,39,0.00,,,0.00,WUHU216WMR100,2013-01-22 16:49:00,
2013-01-22 11:54:00,16.0,-5.4,29.23,NNW,337,6.3,6.3,38,0.00,,,0.00,WUHU216WMR100,2013-01-22 16:54:00,
2013-01-22 11:59:00,15.8,-5.5,29.23,NNW,337,6.3,6.3,38,0.00,,,0.00,WUHU216WMR100,2013-01-22 16:59:00,
2013-01-22 12:04:00,17.1,-4.9,29.23,NNW,337,6.3,6.3,37,0.00,,,0.00,WUHU216WMR100,2013-01-22 17:04:00,
2013-01-22 12:09:00,19.2,-3.6,29.23,NNW,337,6.3,6.3,36,0.00,,,0.00,WUHU216WMR100,2013-01-22 17:09:00,
2013-01-22 12:14:00,19.6,-3.3,29.21,NNW,337,6.3,6.3,36,0.00,,,0.00,WUHU216WMR100,2013-01-22 17:14:00,
2013-01-22 12:19:00,19.4,-3.4,29.21,NNW,337,6.3,6.3,36,0.00,,,0.00,WUHU216WMR100,2013-01-22 17:19:00,
2013-01-22 12:24:00,17.6,-5.1,29.21,NNW,337,6.3,6.3,36,0.00,,,0.00,WUHU216WMR100,2013-01-22 17:24:00,
2013-01-22 12:29:00,17.4,-4.7,29.21,NNW,337,6.3,6.3,37,0.00,,,0.00,WUHU216WMR100,2013-01-22 17:29:00,
2013-01-22 12:34:00,18.7,-3.5,29.21,NNW,337,6.3,6.3,37,0.00,,,0.00,WUHU216WMR100,2013-01-22 17:34:00,
2013-01-22 12:39:00,18.7,-4.7,29.21,NNW,337,6.3,6.3,35,0.00,,,0.00,WUHU216WMR100,2013-01-22 17:39:00,
2013-01-22 12:44:00,20.3,-3.2,29.21,NNW,337,6.3,6.3,35,0.00,,,0.00,WUHU216WMR100,2013-01-22 17:44:00,
2013-01-22 12:49:00,20.1,-3.4,29.21,NNW,337,6.3,6.3,35,0.00,,,0.00,WUHU216WMR100,2013-01-22 17:49:00,
2013-01-22 12:54:00,21.0,-2.6,29.21,NNW,337,6.3,6.3,35,0.00,,,0.00,WUHU216WMR100,2013-01-22 17:54:00,
2013-01-22 12:59:00,20.1,-4.0,29.21,NNW,337,6.3,6.3,34,0.00,,,0.00,WUHU216WMR100,2013-01-22 17:59:00,
2013-01-22 13:04:00,17.8,-5.5,29.21,NNW,337,6.3,6.3,35,0.00,,,0.00,WUHU216WMR100,2013-01-22 18:04:00,
2013-01-22 13:09:00,16.5,-6.0,29.21,NNW,337,6.3,6.3,36,0.00,,,0.00,WUHU216WMR100,2013-01-22 18:09:00,
2013-01-22 13:14:00,15.1,-7.3,29.21,NNW,337,6.3,6.3,36,0.00,,,0.00,WUHU216WMR100,2013-01-22 18:14:00,
2013-01-22 13:19:00,14.9,-6.9,29.21,NNW,337,6.3,6.3,37,0.00,,,0.00,WUHU216WMR100,2013-01-22 18:19:00,
2013-01-22 13:24:00,15.1,-6.7,29.21,NNW,337,6.3,6.3,37,0.00,,,0.00,WUHU216WMR100,2013-01-22 18:24:00,
2013-01-22 13:29:00,17.6,-5.1,29.21,NNW,337,6.3,6.3,36,0.00,,,0.00,WUHU216WMR100,2013-01-22 18:29:00,
2013-01-22 13:34:00,18.1,-4.6,29.21,NNW,337,6.3,6.3,36,0.00,,,0.00,WUHU216WMR100,2013-01-22 18:34:00,
2013-01-22 13:39:00,18.7,-4.1,29.21,NNW,337,6.3,6.3,36,0.00,,,0.00,WUHU216WMR100,2013-01-22 18:39:00,
2013-01-22 13:44:00,18.1,-5.2,29.21,WNW,292,6.5,6.5,35,0.00,,,0.00,WUHU216WMR100,2013-01-22 18:44:00,
2013-01-22 13:49:00,16.2,-6.3,29.21,WNW,292,6.5,6.5,36,0.00,,,0.00,WUHU216WMR100,2013-01-22 18:49:00,
2013-01-22 13:54:00,15.3,-7.1,29.21,WNW,292,6.5,6.5,36,0.00,,,0.00,WUHU216WMR100,2013-01-22 18:54:00,
2013-01-22 13:59:00,14.2,-8.1,29.21,WNW,292,6.5,6.5,36,0.00,,,0.00,WUHU216WMR100,2013-01-22 18:59:00,
2013-01-22 14:04:00,14.5,-7.3,29.21,WNW,292,6.5,6.5,37,0.00,,,0.00,WUHU216WMR100,2013-01-22 19:04:00,
2013-01-22 14:09:00,15.1,-6.2,29.21,WNW,292,6.5,6.5,38,0.00,,,0.00,WUHU216WMR100,2013-01-22 19:09:00,
2013-01-22 14:14:00,14.5,-5.6,29.21,WNW,292,6.5,6.5,40,0.00,,,0.00,WUHU216WMR100,2013-01-22 19:14:00,
2013-01-22 14:19:00,18.0,-3.6,29.21,WNW,292,6.5,6.5,38,0.00,,,0.00,WUHU216WMR100,2013-01-22 19:19:00,
2013-01-22 14:24:00,19.2,-3.6,29.21,WNW,292,6.5,6.5,36,0.00,,,0.00,WUHU216WMR100,2013-01-22 19:24:00,
2013-01-22 14:29:00,17.6,-5.1,29.21,WNW,292,6.5,6.5,36,0.00,,,0.00,WUHU216WMR100,2013-01-22 19:29:00,
2013-01-22 14:34:00,17.6,-5.1,29.21,WNW,292,6.5,6.5,36,0.00,,,0.00,WUHU216WMR100,2013-01-22 19:34:00,
2013-01-22 14:39:00,19.4,-4.0,29.21,WNW,292,6.5,6.5,35,0.00,,,0.00,WUHU216WMR100,2013-01-22 19:39:00,
2013-01-22 14:44:00,18.5,-4.8,29.21,WNW,292,6.5,6.5,35,0.00,,,0.00,WUHU216WMR100,2013-01-22 19:44:00,
2013-01-22 14:49:00,18.5,-4.2,29.21,WNW,292,6.5,6.5,36,0.00,,,0.00,WUHU216WMR100,2013-01-22 19:49:00,
2013-01-22 14:54:00,16.7,-5.3,29.21,WNW,292,6.5,6.5,37,0.00,,,0.00,WUHU216WMR100,2013-01-22 19:54:00,
2013-01-22 14:59:00,14.9,-6.9,29.21,WSW,247,5.6,6.5,37,0.00,,,0.00,WUHU216WMR100,2013-01-22 19:59:00,
2013-01-22 15:04:00,13.8,-7.9,29.21,WNW,292,4.0,7.8,37,0.00,,,0.00,WUHU216WMR100,2013-01-22 20:04:00,
2013-01-22 15:09:00,13.3,-8.3,29.21,WNW,292,4.0,7.8,37,0.00,,,0.00,WUHU216WMR100,2013-01-22 20:09:00,
2013-01-22 15:14:00,14.2,-5.9,29.21,WNW,292,4.0,7.8,40,0.00,,,0.00,WUHU216WMR100,2013-01-22 20:14:00,
2013-01-22 15:19:00,14.2,-6.4,29.21,WNW,292,4.0,7.8,39,0.00,,,0.00,WUHU216WMR100,2013-01-22 20:19:00,
2013-01-22 15:24:00,15.6,-5.2,29.21,WNW,292,4.0,7.8,39,0.00,,,0.00,WUHU216WMR100,2013-01-22 20:24:00,
2013-01-22 15:29:00,15.3,-6.0,29.21,WNW,292,4.0,7.8,38,0.00,,,0.00,WUHU216WMR100,2013-01-22 20:29:00,
2013-01-22 15:34:00,13.5,-8.2,29.21,WNW,292,4.0,7.8,37,0.00,,,0.00,WUHU216WMR100,2013-01-22 20:34:00,
2013-01-22 15:39:00,12.9,-8.7,29.21,WNW,292,4.0,7.8,37,0.00,,,0.00,WUHU216WMR100,2013-01-22 20:39:00,
2013-01-22 15:44:00,12.7,-8.9,29.21,WSW,247,4.9,7.8,37,0.00,,,0.00,WUHU216WMR100,2013-01-22 20:44:00,
2013-01-22 15:49:00,12.7,-8.9,29.21,WSW,247,4.9,7.8,37,0.00,,,0.00,WUHU216WMR100,2013-01-22 20:49:00,
2013-01-22 15:54:00,12.6,-9.0,29.21,WSW,247,4.9,4.9,37,0.00,,,0.00,WUHU216WMR100,2013-01-22 20:54:00,
2013-01-22 15:59:00,12.9,-8.7,29.21,WSW,247,4.9,4.9,37,0.00,,,0.00,WUHU216WMR100,2013-01-22 20:59:00,
2013-01-22 16:04:00,13.1,-8.5,29.21,WSW,247,4.9,4.9,37,0.00,,,0.00,WUHU216WMR100,2013-01-22 21:04:00,
2013-01-22 16:09:00,13.3,-8.3,29.21,West,270,3.1,4.9,37,0.00,,,0.00,WUHU216WMR100,2013-01-22 21:09:00,
2013-01-22 16:14:00,13.3,-8.3,29.21,West,270,3.1,4.9,37,0.00,,,0.00,WUHU216WMR100,2013-01-22 21:14:00,
2013-01-22 16:19:00,12.7,-8.9,29.21,West,270,3.1,3.1,37,0.00,,,0.00,WUHU216WMR100,2013-01-22 21:19:00,
2013-01-22 16:24:00,12.6,-9.0,29.21,West,270,3.1,3.1,37,0.00,,,0.00,WUHU216WMR100,2013-01-22 21:24:00,
2013-01-22 16:29:00,12.6,-9.0,29.21,West,270,3.1,3.1,37,0.00,,,0.00,WUHU216WMR100,2013-01-22 21:29:00,
2013-01-22 16:31:00,12.6,-9.0,29.21,West,270,3.1,3.1,37,0.00,,,0.00,WUHU216WMR100,2013-01-22 21:31:00,
2013-01-22 16:36:00,12.0,-9.5,29.21,West,270,3.1,3.1,37,0.00,,,0.00,WUHU216WMR100,2013-01-22 21:36:00,
2013-01-22 16:41:00,12.0,-9.5,29.23,West,270,3.1,3.1,37,0.00,,,0.00,WUHU216WMR100,2013-01-22 21:41:00,
2013-01-22 16:46:00,12.0,-9.5,29.23,WSW,247,3.4,6.0,37,0.00,,,0.00,WUHU216WMR100,2013-01-22 21:46:00,
2013-01-22 16:51:00,11.8,-9.7,29.23,SSW,202,2.7,6.0,37,0.00,,,0.00,WUHU216WMR100,2013-01-22 21:51:00,
2013-01-22 16:56:00,11.8,-9.7,29.23,SSW,202,2.7,4.9,37,0.00,,,0.00,WUHU216WMR100,2013-01-22 21:56:00,
2013-01-22 17:01:00,11.7,-9.8,29.23,SSW,202,2.7,2.7,37,0.00,,,0.00,WUHU216WMR100,2013-01-22 22:01:00,
2013-01-22 17:06:00,11.8,-9.7,29.23,West,270,4.0,4.9,37,0.00,,,0.00,WUHU216WMR100,2013-01-22 22:06:00,
2013-01-22 17:11:00,11.7,-9.8,29.23,West,270,4.0,4.9,37,0.00,,,0.00,WUHU216WMR100,2013-01-22 22:11:00,
2013-01-22 17:16:00,11.7,-9.8,29.23,NNW,337,2.9,4.9,37,0.00,,,0.00,WUHU216WMR100,2013-01-22 22:16:00,
2013-01-22 17:21:00,11.7,-9.8,29.23,NNW,337,2.9,4.9,37,0.00,,,0.00,WUHU216WMR100,2013-01-22 22:21:00,
2013-01-22 17:26:00,11.5,-9.9,29.21,WSW,247,2.2,6.3,37,0.00,,,0.00,WUHU216WMR100,2013-01-22 22:26:00,
2013-01-22 17:31:00,11.3,-10.1,29.21,WSW,247,2.9,6.3,37,0.00,,,0.00,WUHU216WMR100,2013-01-22 22:31:00,
2013-01-22 17:36:00,11.5,-9.9,29.21,WSW,247,2.9,4.3,37,0.00,,,0.00,WUHU216WMR100,2013-01-22 22:36:00,
2013-01-22 17:41:00,11.5,-9.9,29.23,WSW,247,2.9,2.9,37,0.00,,,0.00,WUHU216WMR100,2013-01-22 22:41:00,
2013-01-22 17:47:00,11.3,-10.1,29.23,WSW,247,2.7,2.9,37,0.00,,,0.00,WUHU216WMR100,2013-01-22 22:47:00,
2013-01-22 17:52:00,11.1,-10.3,29.23,WSW,247,2.9,2.9,37,0.00,,,0.00,WUHU216WMR100,2013-01-22 22:52:00,
2013-01-22 17:57:00,10.9,-10.5,29.23,NNW,337,3.8,6.5,37,0.00,,,0.00,WUHU216WMR100,2013-01-22 22:57:00,
2013-01-22 18:02:00,10.9,-10.5,29.23,WSW,247,3.6,6.5,37,0.00,,,0.00,WUHU216WMR100,2013-01-22 23:02:00,
2013-01-22 18:07:00,10.9,-10.5,29.23,North,0,3.8,7.8,37,0.00,,,0.00,WUHU216WMR100,2013-01-22 23:07:00,
2013-01-22 18:12:00,10.9,-10.5,29.23,WSW,247,4.3,7.8,37,0.00,,,0.00,WUHU216WMR100,2013-01-22 23:12:00,
2013-01-22 18:17:00,10.8,-10.6,29.23,West,270,4.7,6.5,37,0.00,,,0.00,WUHU216WMR100,2013-01-22 23:17:00,
2013-01-22 18:22:00,10.9,-10.5,29.23,NW,315,3.6,7.2,37,0.00,,,0.00,WUHU216WMR100,2013-01-22 23:22:00,
2013-01-22 18:27:00,10.9,-10.5,29.23,WSW,247,4.0,7.2,37,0.00,,,0.00,WUHU216WMR100,2013-01-22 23:27:00,
2013-01-22 18:32:00,10.9,-10.5,29.23,SW,225,2.7,6.3,37,0.00,,,0.00,WUHU216WMR100,2013-01-22 23:32:00,
2013-01-22 18:37:00,10.9,-10.5,29.23,West,270,3.6,5.4,37,0.00,,,0.00,WUHU216WMR100,2013-01-22 23:37:00,
2013-01-22 18:42:00,10.9,-10.5,29.23,SSW,202,3.4,6.0,37,0.00,,,0.00,WUHU216WMR100,2013-01-22 23:42:00,
2013-01-22 18:47:00,10.9,-10.5,29.23,WSW,247,2.9,6.0,37,0.00,,,0.00,WUHU216WMR100,2013-01-22 23:47:00,
2013-01-22 18:52:00,10.8,-10.6,29.23,WSW,247,2.9,6.0,37,0.00,,,0.00,WUHU216WMR100,2013-01-22 23:52:00,
2013-01-22 18:57:00,10.4,-10.9,29.23,ESE,112,2.5,4.7,37,0.00,,,0.00,WUHU216WMR100,2013-01-22 23:57:00,
2013-01-22 19:02:00,10.4,-10.9,29.23,NNW,337,3.8,8.5,37,0.00,,,0.00,WUHU216WMR100,2013-01-23 00:02:00,
2013-01-22 19:07:00,10.4,-10.9,29.23,West,270,4.5,8.5,37,0.00,,,0.00,WUHU216WMR100,2013-01-23 00:07:00,
2013-01-22 19:12:00,10.2,-11.1,29.23,North,0,3.4,5.8,37,0.00,,,0.00,WUHU216WMR100,2013-01-23 00:12:00,
2013-01-22 19:17:00,10.2,-11.1,29.23,WSW,247,2.9,5.4,37,0.00,,,0.00,WUHU216WMR100,2013-01-23 00:17:00,
2013-01-22 19:22:00,10.0,-11.3,29.23,WNW,292,2.5,6.0,37,0.00,,,0.00,WUHU216WMR100,2013-01-23 00:22:00,
2013-01-22 19:27:00,9.9,-11.4,29.23,NNW,337,3.1,6.0,37,0.00,,,0.00,WUHU216WMR100,2013-01-23 00:27:00,
2013-01-22 19:32:00,9.7,-11.6,29.23,NNW,337,1.3,5.8,37,0.00,,,0.00,WUHU216WMR100,2013-01-23 00:32:00,
2013-01-22 19:37:00,9.7,-11.6,29.23,WNW,292,4.3,6.3,37,0.00,,,0.00,WUHU216WMR100,2013-01-23 00:37:00,
2013-01-22 19:42:00,9.7,-11.6,29.23,WNW,292,2.5,6.3,37,0.00,,,0.00,WUHU216WMR100,2013-01-23 00:42:00,
2013-01-22 19:47:00,9.5,-11.7,29.23,North,0,3.1,6.0,37,0.00,,,0.00,WUHU216WMR100,2013-01-23 00:47:00,
2013-01-22 19:52:00,9.5,-11.7,29.23,NNW,337,2.2,6.0,37,0.00,,,0.00,WUHU216WMR100,2013-01-23 00:52:00,
2013-01-22 19:57:00,9.3,-11.9,29.23,NNW,337,2.5,5.6,37,0.00,,,0.00,WUHU216WMR100,2013-01-23 00:57:00,
2013-01-22 20:02:00,9.3,-11.9,29.23,NNW,337,2.9,5.6,37,0.00,,,0.00,WUHU216WMR100,2013-01-23 01:02:00,
2013-01-22 20:07:00,9.3,-11.9,29.23,WNW,292,2.7,4.9,37,0.00,,,0.00,WUHU216WMR100,2013-01-23 01:07:00,
2013-01-22 20:12:00,9.1,-12.1,29.23,WSW,247,2.5,5.8,37,0.00,,,0.00,WUHU216WMR100,2013-01-23 01:12:00,
2013-01-22 20:17:00,9.1,-12.1,29.23,WSW,247,1.6,5.8,37,0.00,,,0.00,WUHU216WMR100,2013-01-23 01:17:00,
2013-01-22 20:22:00,9.0,-12.2,29.23,NNW,337,2.7,4.7,37,0.00,,,0.00,WUHU216WMR100,2013-01-23 01:22:00,
2013-01-22 20:27:00,8.8,-12.4,29.23,North,0,2.2,4.3,37,0.00,,,0.00,WUHU216WMR100,2013-01-23 01:27:00,
2013-01-22 20:32:00,8.8,-12.4,29.23,WNW,292,2.5,4.7,37,0.00,,,0.00,WUHU216WMR100,2013-01-23 01:32:00,
2013-01-22 20:37:00,8.8,-12.4,29.23,West,270,3.4,5.4,37,0.00,,,0.00,WUHU216WMR100,2013-01-23 01:37:00,
2013-01-22 20:42:00,8.8,-12.4,29.23,WNW,292,2.0,5.4,37,0.00,,,0.00,WUHU216WMR100,2013-01-23 01:42:00,
2013-01-22 20:47:00,8.6,-12.6,29.23,NNW,337,2.2,4.0,37,0.00,,,0.00,WUHU216WMR100,2013-01-23 01:47:00,
2013-01-22 20:52:00,8.4,-12.7,29.23,WSW,247,1.3,3.4,37,0.00,,,0.00,WUHU216WMR100,2013-01-23 01:52:00,
2013-01-22 20:57:00,8.4,-12.7,29.23,WSW,247,2.7,4.0,37,0.00,,,0.00,WUHU216WMR100,2013-01-23 01:57:00,
2013-01-22 21:03:00,8.6,-12.6,29.23,WNW,292,2.9,5.4,37,0.00,,,0.00,WUHU216WMR100,2013-01-23 02:03:00,
2013-01-22 21:08:00,8.6,-12.6,29.23,North,0,4.5,5.4,37,0.00,,,0.00,WUHU216WMR100,2013-01-23 02:08:00,
2013-01-22 21:13:00,8.6,-12.6,29.23,North,0,2.5,5.6,37,0.00,,,0.00,WUHU216WMR100,2013-01-23 02:13:00,
2013-01-22 21:18:00,8.6,-12.6,29.23,NNW,337,4.5,5.8,37,0.00,,,0.00,WUHU216WMR100,2013-01-23 02:18:00,
2013-01-22 21:23:00,8.6,-12.6,29.23,NNW,337,3.1,5.8,37,0.00,,,0.00,WUHU216WMR100,2013-01-23 02:23:00,
2013-01-22 21:28:00,8.4,-12.7,29.23,WNW,292,1.6,4.5,37,0.00,,,0.00,WUHU216WMR100,2013-01-23 02:28:00,
2013-01-22 21:33:00,8.4,-12.7,29.23,WSW,247,2.5,4.9,37,0.00,,,0.00,WUHU216WMR100,2013-01-23 02:33:00,
2013-01-22 21:38:00,8.2,-12.9,29.23,NNW,337,3.1,4.9,37,0.00,,,0.00,WUHU216WMR100,2013-01-23 02:38:00,
2013-01-22 21:43:00,8.1,-13.0,29.23,NNW,337,1.3,4.0,37,0.00,,,0.00,WUHU216WMR100,2013-01-23 02:43:00,
2013-01-22 21:48:00,8.1,-13.0,29.23,NNW,337,1.3,3.6,37,0.00,,,0.00,WUHU216WMR100,2013-01-23 02:48:00,
2013-01-22 21:53:00,7.9,-13.2,29.23,NNW,337,1.6,3.1,37,0.00,,,0.00,WUHU216WMR100,2013-01-23 02:53:00,
2013-01-22 21:58:00,7.7,-13.4,29.23,NNW,337,1.6,3.1,37,0.00,,,0.00,WUHU216WMR100,2013-01-23 02:58:00,
2013-01-22 22:03:00,7.5,-13.5,29.23,South,180,0.0,2.9,37,0.00,,,0.00,WUHU216WMR100,2013-01-23 03:03:00,
2013-01-22 22:08:00,7.5,-13.5,29.23,NNW,337,0.0,1.6,37,0.00,,,0.00,WUHU216WMR100,2013-01-23 03:08:00,
2013-01-22 22:13:00,7.2,-13.8,29.23,NNW,337,0.0,0.0,37,0.00,,,0.00,WUHU216WMR100,2013-01-23 03:13:00,
2013-01-22 22:18:00,7.2,-13.8,29.23,West,270,1.3,1.6,37,0.00,,,0.00,WUHU216WMR100,2013-01-23 03:18:00,
2013-01-22 22:23:00,7.2,-13.8,29.23,NNW,337,0.0,1.6,37,0.00,,,0.00,WUHU216WMR100,2013-01-23 03:23:00,
2013-01-22 22:29:00,7.0,-14.0,29.23,West,270,1.6,2.5,37,0.00,,,0.00,WUHU216WMR100,2013-01-23 03:29:00,
2013-01-22 22:34:00,7.0,-14.0,29.23,WSW,247,2.0,2.5,37,0.00,,,0.00,WUHU216WMR100,2013-01-23 03:34:00,
2013-01-22 22:39:00,7.0,-14.0,29.23,NNW,337,0.0,2.5,37,0.00,,,0.00,WUHU216WMR100,2013-01-23 03:39:00,
2013-01-22 22:44:00,6.8,-14.2,29.23,WNW,292,1.1,2.7,37,0.00,,,0.00,WUHU216WMR100,2013-01-23 03:44:00,
2013-01-22 22:49:00,6.6,-14.3,29.23,WNW,292,0.0,2.7,37,0.00,,,0.00,WUHU216WMR100,2013-01-23 03:49:00,
2013-01-22 22:54:00,6.6,-14.3,29.23,WNW,292,1.1,1.6,37,0.00,,,0.00,WUHU216WMR100,2013-01-23 03:54:00,
2013-01-22 22:59:00,6.4,-14.5,29.23,East,90,0.9,2.7,37,0.00,,,0.00,WUHU216WMR100,2013-01-23 03:59:00,
2013-01-22 23:04:00,6.3,-14.6,29.23,East,90,0.0,2.7,37,0.00,,,0.00,WUHU216WMR100,2013-01-23 04:04:00,
2013-01-22 23:09:00,6.3,-14.6,29.23,NNE,22,0.0,1.3,37,0.00,,,0.00,WUHU216WMR100,2013-01-23 04:09:00,
2013-01-22 23:14:00,6.3,-14.6,29.23,North,0,0.9,1.6,37,0.00,,,0.00,WUHU216WMR100,2013-01-23 04:14:00,
2013-01-22 23:19:00,6.1,-14.8,29.23,WNW,292,1.3,1.6,37,0.00,,,0.00,WUHU216WMR100,2013-01-23 04:19:00,
2013-01-22 23:24:00,6.1,-14.8,29.23,NNW,337,0.0,2.0,37,0.00,,,0.00,WUHU216WMR100,2013-01-23 04:24:00,
2013-01-22 23:29:00,6.1,-14.8,29.23,WNW,292,1.3,3.4,37,0.00,,,0.00,WUHU216WMR100,2013-01-23 04:29:00,
2013-01-22 23:34:00,6.3,-14.6,29.23,WNW,292,0.0,3.4,37,0.00,,,0.00,WUHU216WMR100,2013-01-23 04:34:00,
2013-01-22 23:39:00,6.3,-14.6,29.23,NNW,337,0.0,2.9,37,0.00,,,0.00,WUHU216WMR100,2013-01-23 04:39:00,
2013-01-22 23:44:00,6.4,-14.5,29.23,WNW,292,2.0,3.4,37,0.00,,,0.00,WUHU216WMR100,2013-01-23 04:44:00,
2013-01-22 23:49:00,6.3,-14.6,29.23,NNW,337,1.1,3.8,37,0.00,,,0.00,WUHU216WMR100,2013-01-23 04:49:00,
2013-01-22 23:54:00,6.3,-14.6,29.23,WNW,292,0.9,3.8,37,0.00,,,0.00,WUHU216WMR100,2013-01-23 04:54:00,
2013-01-22 23:59:00,6.1,-14.8,29.23,NNW,337,1.3,2.2,37,0.00,,,0.00,WUHU216WMR100,2013-01-23 04:59:00,